sensor_id;sensor_type;location;lat;lon;timestamp;P1;durP1;ratioP1;P2;durP2;ratioP2
37299;SDS011;23184;51.902;12.836;2022-09-20T00:00:32;12.57;;;2.00;;
37299;SDS011;23184;51.902;12.836;2022-09-20T00:02:58;6.18;;;1.67;;
37299;SDS011;23184;51.902;12.836;2022-09-20T00:05:24;9.00;;;1.77;;
37299;SDS011;23184;51.902;12.836;2022-09-20T00:07:49;5.60;;;1.63;;
37299;SDS011;23184;51.902;12.836;2022-09-20T00:10:15;12.52;;;1.50;;
37299;SDS011;23184;51.902;12.836;2022-09-20T00:12:40;6.05;;;1.40;;
37299;SDS011;23184;51.902;12.836;2022-09-20T00:15:06;6.57;;;1.10;;
37299;SDS011;23184;51.902;12.836;2022-09-20T00:17:32;7.53;;;1.30;;
37299;SDS011;23184;51.902;12.836;2022-09-20T00:19:57;6.88;;;1.33;;
37299;SDS011;23184;51.902;12.836;2022-09-20T00:22:23;14.23;;;1.70;;
37299;SDS011;23184;51.902;12.836;2022-09-20T00:24:48;4.53;;;1.20;;
37299;SDS011;23184;51.902;12.836;2022-09-20T00:27:14;7.13;;;1.63;;
37299;SDS011;23184;51.902;12.836;2022-09-20T00:29:39;6.63;;;1.30;;
37299;SDS011;23184;51.902;12.836;2022-09-20T00:32:05;8.40;;;1.95;;
37299;SDS011;23184;51.902;12.836;2022-09-20T00:34:31;5.45;;;1.40;;
37299;SDS011;23184;51.902;12.836;2022-09-20T00:37:15;9.50;;;1.27;;
37299;SDS011;23184;51.902;12.836;2022-09-20T00:39:41;6.88;;;1.63;;
37299;SDS011;23184;51.902;12.836;2022-09-20T00:42:09;7.70;;;1.73;;
37299;SDS011;23184;51.902;12.836;2022-09-20T00:44:40;6.63;;;1.35;;
37299;SDS011;23184;51.902;12.836;2022-09-20T00:47:20;5.72;;;1.70;;
37299;SDS011;23184;51.902;12.836;2022-09-20T00:49:57;5.97;;;1.38;;
37299;SDS011;23184;51.902;12.836;2022-09-20T00:52:36;6.68;;;1.60;;
37299;SDS011;23184;51.902;12.836;2022-09-20T00:55:02;8.38;;;1.60;;
37299;SDS011;23184;51.902;12.836;2022-09-20T00:57:32;4.82;;;1.85;;
37299;SDS011;23184;51.902;12.836;2022-09-20T01:00:00;8.52;;;1.70;;
37299;SDS011;23184;51.902;12.836;2022-09-20T01:02:32;7.78;;;1.90;;
37299;SDS011;23184;51.902;12.836;2022-09-20T01:05:03;7.47;;;1.80;;
37299;SDS011;23184;51.902;12.836;2022-09-20T01:07:29;6.25;;;1.75;;
37299;SDS011;23184;51.902;12.836;2022-09-20T01:09:55;7.63;;;1.98;;
37299;SDS011;23184;51.902;12.836;2022-09-20T01:12:22;8.15;;;2.20;;
37299;SDS011;23184;51.902;12.836;2022-09-20T01:14:52;8.15;;;2.00;;
37299;SDS011;23184;51.902;12.836;2022-09-20T01:17:20;6.53;;;1.98;;
37299;SDS011;23184;51.902;12.836;2022-09-20T01:19:59;7.80;;;2.55;;
37299;SDS011;23184;51.902;12.836;2022-09-20T01:22:59;15.23;;;3.15;;
37299;SDS011;23184;51.902;12.836;2022-09-20T01:28:22;8.48;;;2.50;;
37299;SDS011;23184;51.902;12.836;2022-09-20T01:33:38;8.32;;;2.53;;
37299;SDS011;23184;51.902;12.836;2022-09-20T01:36:12;11.07;;;2.85;;
37299;SDS011;23184;51.902;12.836;2022-09-20T01:38:44;10.20;;;3.63;;
37299;SDS011;23184;51.902;12.836;2022-09-20T01:41:44;9.55;;;3.40;;
37299;SDS011;23184;51.902;12.836;2022-09-20T01:46:51;15.05;;;4.18;;
37299;SDS011;23184;51.902;12.836;2022-09-20T01:49:48;15.82;;;4.60;;
37299;SDS011;23184;51.902;12.836;2022-09-20T01:59:00;14.27;;;5.50;;
37299;SDS011;23184;51.902;12.836;2022-09-20T02:07:32;14.43;;;5.80;;
37299;SDS011;23184;51.902;12.836;2022-09-20T02:13:26;15.57;;;5.90;;
37299;SDS011;23184;51.902;12.836;2022-09-20T02:27:57;16.08;;;6.75;;
37299;SDS011;23184;51.902;12.836;2022-09-20T02:30:41;16.67;;;7.28;;
37299;SDS011;23184;51.902;12.836;2022-09-20T02:36:37;22.70;;;8.10;;
37299;SDS011;23184;51.902;12.836;2022-09-20T02:39:21;16.42;;;7.70;;
37299;SDS011;23184;51.902;12.836;2022-09-20T02:41:58;16.97;;;7.43;;
37299;SDS011;23184;51.902;12.836;2022-09-20T02:44:46;16.67;;;7.28;;
37299;SDS011;23184;51.902;12.836;2022-09-20T02:47:32;17.92;;;7.95;;
37299;SDS011;23184;51.902;12.836;2022-09-20T02:50:09;19.63;;;7.82;;
37299;SDS011;23184;51.902;12.836;2022-09-20T02:58:20;26.90;;;8.27;;
37299;SDS011;23184;51.902;12.836;2022-09-20T03:18:18;23.58;;;8.50;;
37299;SDS011;23184;51.902;12.836;2022-09-20T03:23:50;25.10;;;9.52;;
37299;SDS011;23184;51.902;12.836;2022-09-20T03:29:03;23.08;;;8.70;;
37299;SDS011;23184;51.902;12.836;2022-09-20T03:31:39;22.05;;;9.38;;
37299;SDS011;23184;51.902;12.836;2022-09-20T03:34:20;21.25;;;8.73;;
37299;SDS011;23184;51.902;12.836;2022-09-20T03:37:03;19.73;;;9.07;;
37299;SDS011;23184;51.902;12.836;2022-09-20T03:39:46;18.00;;;8.95;;
37299;SDS011;23184;51.902;12.836;2022-09-20T03:42:45;19.88;;;8.82;;
37299;SDS011;23184;51.902;12.836;2022-09-20T03:45:25;21.35;;;8.95;;
37299;SDS011;23184;51.902;12.836;2022-09-20T03:59:24;19.92;;;8.98;;
37299;SDS011;23184;51.902;12.836;2022-09-20T04:02:05;22.35;;;8.60;;
37299;SDS011;23184;51.902;12.836;2022-09-20T04:04:54;18.88;;;8.88;;
37299;SDS011;23184;51.902;12.836;2022-09-20T04:10:40;18.75;;;7.35;;
37299;SDS011;23184;51.902;12.836;2022-09-20T04:18:51;17.30;;;7.57;;
37299;SDS011;23184;51.902;12.836;2022-09-20T04:21:57;21.48;;;8.73;;
37299;SDS011;23184;51.902;12.836;2022-09-20T04:24:32;18.42;;;8.00;;
37299;SDS011;23184;51.902;12.836;2022-09-20T04:27:24;19.10;;;7.10;;
37299;SDS011;23184;51.902;12.836;2022-09-20T04:32:41;17.48;;;8.15;;
37299;SDS011;23184;51.902;12.836;2022-09-20T04:35:45;19.23;;;7.68;;
37299;SDS011;23184;51.902;12.836;2022-09-20T04:39:03;18.02;;;7.78;;
37299;SDS011;23184;51.902;12.836;2022-09-20T04:44:19;19.08;;;7.55;;
37299;SDS011;23184;51.902;12.836;2022-09-20T04:53:17;15.63;;;7.05;;
37299;SDS011;23184;51.902;12.836;2022-09-20T04:56:00;18.15;;;8.70;;
37299;SDS011;23184;51.902;12.836;2022-09-20T05:04:35;21.58;;;7.88;;
37299;SDS011;23184;51.902;12.836;2022-09-20T05:07:43;20.92;;;8.50;;
37299;SDS011;23184;51.902;12.836;2022-09-20T05:10:34;16.92;;;8.05;;
37299;SDS011;23184;51.902;12.836;2022-09-20T05:13:11;19.23;;;7.07;;
37299;SDS011;23184;51.902;12.836;2022-09-20T05:15:43;20.52;;;7.70;;
37299;SDS011;23184;51.902;12.836;2022-09-20T05:21:09;18.73;;;8.07;;
37299;SDS011;23184;51.902;12.836;2022-09-20T05:29:21;20.17;;;7.80;;
37299;SDS011;23184;51.902;12.836;2022-09-20T05:32:02;21.52;;;9.05;;
37299;SDS011;23184;51.902;12.836;2022-09-20T05:34:51;21.90;;;8.32;;
37299;SDS011;23184;51.902;12.836;2022-09-20T05:43:17;19.45;;;8.52;;
37299;SDS011;23184;51.902;12.836;2022-09-20T05:46:07;21.52;;;8.60;;
37299;SDS011;23184;51.902;12.836;2022-09-20T06:00:20;16.75;;;7.72;;
37299;SDS011;23184;51.902;12.836;2022-09-20T06:13:38;18.75;;;8.70;;
37299;SDS011;23184;51.902;12.836;2022-09-20T06:16:39;14.48;;;8.68;;
37299;SDS011;23184;51.902;12.836;2022-09-20T06:19:21;14.57;;;7.05;;
37299;SDS011;23184;51.902;12.836;2022-09-20T06:24:22;15.93;;;7.55;;
37299;SDS011;23184;51.902;12.836;2022-09-20T06:26:58;17.83;;;8.07;;
37299;SDS011;23184;51.902;12.836;2022-09-20T06:29:29;13.05;;;7.22;;
37299;SDS011;23184;51.902;12.836;2022-09-20T06:31:58;19.10;;;7.53;;
37299;SDS011;23184;51.902;12.836;2022-09-20T06:34:24;18.65;;;7.60;;
37299;SDS011;23184;51.902;12.836;2022-09-20T06:36:53;19.33;;;8.50;;
37299;SDS011;23184;51.902;12.836;2022-09-20T06:42:57;18.25;;;7.45;;
37299;SDS011;23184;51.902;12.836;2022-09-20T06:45:24;25.67;;;8.55;;
37299;SDS011;23184;51.902;12.836;2022-09-20T06:47:49;19.10;;;8.35;;
37299;SDS011;23184;51.902;12.836;2022-09-20T06:50:15;15.23;;;7.78;;
37299;SDS011;23184;51.902;12.836;2022-09-20T06:52:41;17.23;;;7.60;;
37299;SDS011;23184;51.902;12.836;2022-09-20T06:55:09;16.50;;;7.40;;
37299;SDS011;23184;51.902;12.836;2022-09-20T06:57:42;14.65;;;7.38;;
37299;SDS011;23184;51.902;12.836;2022-09-20T07:00:08;13.60;;;7.28;;
37299;SDS011;23184;51.902;12.836;2022-09-20T07:02:39;13.88;;;6.78;;
37299;SDS011;23184;51.902;12.836;2022-09-20T07:05:05;12.00;;;6.97;;
37299;SDS011;23184;51.902;12.836;2022-09-20T07:07:35;16.02;;;6.70;;
37299;SDS011;23184;51.902;12.836;2022-09-20T07:10:00;14.07;;;6.55;;
37299;SDS011;23184;51.902;12.836;2022-09-20T07:12:27;10.07;;;6.00;;
37299;SDS011;23184;51.902;12.836;2022-09-20T07:14:57;14.07;;;5.93;;
37299;SDS011;23184;51.902;12.836;2022-09-20T07:17:22;17.20;;;6.53;;
37299;SDS011;23184;51.902;12.836;2022-09-20T07:19:49;13.38;;;6.50;;
37299;SDS011;23184;51.902;12.836;2022-09-20T07:22:15;14.55;;;5.88;;
37299;SDS011;23184;51.902;12.836;2022-09-20T07:24:40;12.05;;;5.38;;
37299;SDS011;23184;51.902;12.836;2022-09-20T07:27:09;10.93;;;5.43;;
37299;SDS011;23184;51.902;12.836;2022-09-20T07:29:35;10.30;;;5.43;;
37299;SDS011;23184;51.902;12.836;2022-09-20T07:32:02;13.15;;;5.20;;
37299;SDS011;23184;51.902;12.836;2022-09-20T07:34:27;12.48;;;4.88;;
37299;SDS011;23184;51.902;12.836;2022-09-20T07:36:53;13.18;;;4.65;;
37299;SDS011;23184;51.902;12.836;2022-09-20T07:39:21;13.73;;;4.45;;
37299;SDS011;23184;51.902;12.836;2022-09-20T07:41:46;11.20;;;4.10;;
37299;SDS011;23184;51.902;12.836;2022-09-20T07:44:14;9.40;;;5.32;;
37299;SDS011;23184;51.902;12.836;2022-09-20T07:46:49;10.30;;;3.28;;
37299;SDS011;23184;51.902;12.836;2022-09-20T07:49:16;7.22;;;3.58;;
37299;SDS011;23184;51.902;12.836;2022-09-20T07:51:41;12.23;;;3.40;;
37299;SDS011;23184;51.902;12.836;2022-09-20T07:54:07;9.65;;;3.15;;
37299;SDS011;23184;51.902;12.836;2022-09-20T07:56:33;11.90;;;3.85;;
37299;SDS011;23184;51.902;12.836;2022-09-20T07:58:59;10.35;;;3.40;;
37299;SDS011;23184;51.902;12.836;2022-09-20T08:01:24;10.10;;;3.67;;
37299;SDS011;23184;51.902;12.836;2022-09-20T08:03:50;12.57;;;3.67;;
37299;SDS011;23184;51.902;12.836;2022-09-20T08:06:16;10.18;;;3.50;;
37299;SDS011;23184;51.902;12.836;2022-09-20T08:08:43;8.05;;;3.60;;
37299;SDS011;23184;51.902;12.836;2022-09-20T08:11:10;7.60;;;3.40;;
37299;SDS011;23184;51.902;12.836;2022-09-20T08:13:37;8.88;;;2.72;;
37299;SDS011;23184;51.902;12.836;2022-09-20T08:16:11;8.15;;;2.60;;
37299;SDS011;23184;51.902;12.836;2022-09-20T08:18:44;9.88;;;2.92;;
37299;SDS011;23184;51.902;12.836;2022-09-20T08:21:11;8.65;;;2.75;;
37299;SDS011;23184;51.902;12.836;2022-09-20T08:23:37;6.65;;;2.60;;
37299;SDS011;23184;51.902;12.836;2022-09-20T08:26:05;6.15;;;2.70;;
37299;SDS011;23184;51.902;12.836;2022-09-20T08:28:32;5.70;;;2.33;;
37299;SDS011;23184;51.902;12.836;2022-09-20T08:31:03;7.18;;;2.53;;
37299;SDS011;23184;51.902;12.836;2022-09-20T08:33:30;8.52;;;2.47;;
37299;SDS011;23184;51.902;12.836;2022-09-20T08:35:56;8.93;;;3.10;;
37299;SDS011;23184;51.902;12.836;2022-09-20T08:38:21;7.47;;;2.80;;
37299;SDS011;23184;51.902;12.836;2022-09-20T08:40:53;7.97;;;3.20;;
37299;SDS011;23184;51.902;12.836;2022-09-20T08:43:23;6.72;;;3.10;;
37299;SDS011;23184;51.902;12.836;2022-09-20T08:45:53;6.45;;;2.50;;
37299;SDS011;23184;51.902;12.836;2022-09-20T08:48:21;7.38;;;2.50;;
37299;SDS011;23184;51.902;12.836;2022-09-20T08:50:50;9.35;;;3.95;;
37299;SDS011;23184;51.902;12.836;2022-09-20T08:53:16;7.10;;;3.45;;
37299;SDS011;23184;51.902;12.836;2022-09-20T08:55:42;8.90;;;3.22;;
37299;SDS011;23184;51.902;12.836;2022-09-20T08:58:09;8.57;;;3.30;;
37299;SDS011;23184;51.902;12.836;2022-09-20T09:00:37;7.10;;;3.20;;
37299;SDS011;23184;51.902;12.836;2022-09-20T09:03:11;7.45;;;3.30;;
37299;SDS011;23184;51.902;12.836;2022-09-20T09:08:19;8.73;;;3.22;;
37299;SDS011;23184;51.902;12.836;2022-09-20T09:10:51;10.38;;;3.20;;
37299;SDS011;23184;51.902;12.836;2022-09-20T09:15:56;6.78;;;2.97;;
37299;SDS011;23184;51.902;12.836;2022-09-20T09:18:30;6.50;;;2.50;;
37299;SDS011;23184;51.902;12.836;2022-09-20T09:20:59;7.70;;;2.83;;
37299;SDS011;23184;51.902;12.836;2022-09-20T09:23:28;8.02;;;2.97;;
37299;SDS011;23184;51.902;12.836;2022-09-20T09:25:56;8.68;;;2.88;;
37299;SDS011;23184;51.902;12.836;2022-09-20T09:28:28;5.78;;;2.80;;
37299;SDS011;23184;51.902;12.836;2022-09-20T09:31:10;7.03;;;2.70;;
37299;SDS011;23184;51.902;12.836;2022-09-20T09:33:56;6.32;;;2.60;;
37299;SDS011;23184;51.902;12.836;2022-09-20T09:36:22;9.50;;;3.05;;
37299;SDS011;23184;51.902;12.836;2022-09-20T09:38:49;12.20;;;3.40;;
37299;SDS011;23184;51.902;12.836;2022-09-20T09:41:35;9.05;;;2.92;;
37299;SDS011;23184;51.902;12.836;2022-09-20T09:44:02;4.80;;;2.65;;
37299;SDS011;23184;51.902;12.836;2022-09-20T09:46:42;4.85;;;2.10;;
37299;SDS011;23184;51.902;12.836;2022-09-20T09:49:18;5.05;;;1.88;;
37299;SDS011;23184;51.902;12.836;2022-09-20T09:54:28;7.35;;;2.33;;
37299;SDS011;23184;51.902;12.836;2022-09-20T10:05:31;6.07;;;1.65;;
37299;SDS011;23184;51.902;12.836;2022-09-20T10:08:08;3.10;;;1.77;;
37299;SDS011;23184;51.902;12.836;2022-09-20T10:10:54;8.32;;;2.03;;
37299;SDS011;23184;51.902;12.836;2022-09-20T10:13:51;5.90;;;1.52;;
37299;SDS011;23184;51.902;12.836;2022-09-20T10:28:20;6.88;;;1.92;;
37299;SDS011;23184;51.902;12.836;2022-09-20T10:31:10;2.92;;;1.48;;
37299;SDS011;23184;51.902;12.836;2022-09-20T10:34:04;7.55;;;2.88;;
37299;SDS011;23184;51.902;12.836;2022-09-20T10:36:40;6.22;;;2.45;;
37299;SDS011;23184;51.902;12.836;2022-09-20T10:47:38;6.45;;;1.40;;
37299;SDS011;23184;51.902;12.836;2022-09-20T10:50:37;2.95;;;1.27;;
37299;SDS011;23184;51.902;12.836;2022-09-20T10:56:39;3.92;;;1.17;;
37299;SDS011;23184;51.902;12.836;2022-09-20T11:05:04;2.30;;;1.20;;
37299;SDS011;23184;51.902;12.836;2022-09-20T11:08:06;2.90;;;1.00;;
37299;SDS011;23184;51.902;12.836;2022-09-20T11:13:59;1.85;;;1.10;;
37299;SDS011;23184;51.902;12.836;2022-09-20T11:16:36;5.70;;;1.33;;
37299;SDS011;23184;51.902;12.836;2022-09-20T11:19:39;2.28;;;1.20;;
37299;SDS011;23184;51.902;12.836;2022-09-20T11:27:43;3.20;;;1.38;;
37299;SDS011;23184;51.902;12.836;2022-09-20T11:30:20;3.80;;;1.25;;
37299;SDS011;23184;51.902;12.836;2022-09-20T11:32:51;3.72;;;1.08;;
37299;SDS011;23184;51.902;12.836;2022-09-20T11:38:10;3.78;;;1.58;;
37299;SDS011;23184;51.902;12.836;2022-09-20T11:43:38;7.55;;;1.98;;
37299;SDS011;23184;51.902;12.836;2022-09-20T11:46:10;5.70;;;1.40;;
37299;SDS011;23184;51.902;12.836;2022-09-20T11:48:59;4.32;;;1.10;;
37299;SDS011;23184;51.902;12.836;2022-09-20T11:51:52;3.13;;;1.10;;
37299;SDS011;23184;51.902;12.836;2022-09-20T11:54:44;1.83;;;1.05;;
37299;SDS011;23184;51.902;12.836;2022-09-20T11:57:18;5.70;;;1.67;;
37299;SDS011;23184;51.902;12.836;2022-09-20T11:59:54;2.90;;;1.20;;
37299;SDS011;23184;51.902;12.836;2022-09-20T12:07:57;3.55;;;1.02;;
37299;SDS011;23184;51.902;12.836;2022-09-20T12:10:26;7.32;;;1.48;;
37299;SDS011;23184;51.902;12.836;2022-09-20T12:13:00;2.35;;;1.00;;
37299;SDS011;23184;51.902;12.836;2022-09-20T12:15:30;4.97;;;1.33;;
37299;SDS011;23184;51.902;12.836;2022-09-20T12:26:09;4.30;;;0.93;;
37299;SDS011;23184;51.902;12.836;2022-09-20T12:36:29;3.90;;;0.93;;
37299;SDS011;23184;51.902;12.836;2022-09-20T12:46:52;3.53;;;1.00;;
37299;SDS011;23184;51.902;12.836;2022-09-20T12:52:26;3.15;;;0.85;;
37299;SDS011;23184;51.902;12.836;2022-09-20T12:58:36;2.40;;;0.73;;
37299;SDS011;23184;51.902;12.836;2022-09-20T13:03:45;1.00;;;0.70;;
37299;SDS011;23184;51.902;12.836;2022-09-20T13:11:15;1.85;;;0.68;;
37299;SDS011;23184;51.902;12.836;2022-09-20T13:16:32;5.05;;;1.35;;
37299;SDS011;23184;51.902;12.836;2022-09-20T13:19:02;0.95;;;0.70;;
37299;SDS011;23184;51.902;12.836;2022-09-20T13:21:31;1.70;;;0.65;;
37299;SDS011;23184;51.902;12.836;2022-09-20T13:24:02;2.35;;;0.70;;
37299;SDS011;23184;51.902;12.836;2022-09-20T13:26:32;3.63;;;0.70;;
37299;SDS011;23184;51.902;12.836;2022-09-20T13:29:03;4.78;;;1.10;;
37299;SDS011;23184;51.902;12.836;2022-09-20T13:31:33;3.45;;;1.08;;
37299;SDS011;23184;51.902;12.836;2022-09-20T13:36:58;3.20;;;0.85;;
37299;SDS011;23184;51.902;12.836;2022-09-20T13:39:26;1.75;;;0.65;;
37299;SDS011;23184;51.902;12.836;2022-09-20T13:41:57;0.75;;;0.65;;
37299;SDS011;23184;51.902;12.836;2022-09-20T13:44:26;1.58;;;0.80;;
37299;SDS011;23184;51.902;12.836;2022-09-20T13:46:54;2.53;;;0.93;;
37299;SDS011;23184;51.902;12.836;2022-09-20T13:49:20;2.67;;;0.77;;
37299;SDS011;23184;51.902;12.836;2022-09-20T13:51:47;5.82;;;1.00;;
37299;SDS011;23184;51.902;12.836;2022-09-20T13:54:23;2.25;;;1.00;;
37299;SDS011;23184;51.902;12.836;2022-09-20T13:56:49;2.45;;;0.80;;
37299;SDS011;23184;51.902;12.836;2022-09-20T13:59:16;1.35;;;0.63;;
37299;SDS011;23184;51.902;12.836;2022-09-20T14:01:47;3.30;;;0.88;;
37299;SDS011;23184;51.902;12.836;2022-09-20T14:04:15;2.47;;;0.82;;
37299;SDS011;23184;51.902;12.836;2022-09-20T14:06:45;5.13;;;1.02;;
37299;SDS011;23184;51.902;12.836;2022-09-20T14:09:17;3.78;;;0.80;;
37299;SDS011;23184;51.902;12.836;2022-09-20T14:11:50;0.90;;;0.50;;
37299;SDS011;23184;51.902;12.836;2022-09-20T14:14:16;1.17;;;0.40;;
37299;SDS011;23184;51.902;12.836;2022-09-20T14:16:43;1.17;;;0.47;;
37299;SDS011;23184;51.902;12.836;2022-09-20T14:19:10;0.63;;;0.52;;
37299;SDS011;23184;51.902;12.836;2022-09-20T14:21:39;0.98;;;0.50;;
37299;SDS011;23184;51.902;12.836;2022-09-20T14:24:07;1.30;;;0.68;;
37299;SDS011;23184;51.902;12.836;2022-09-20T14:29:51;2.95;;;0.90;;
37299;SDS011;23184;51.902;12.836;2022-09-20T14:34:44;3.72;;;0.95;;
37299;SDS011;23184;51.902;12.836;2022-09-20T14:37:17;1.10;;;0.80;;
37299;SDS011;23184;51.902;12.836;2022-09-20T14:39:51;3.42;;;0.75;;
37299;SDS011;23184;51.902;12.836;2022-09-20T14:42:32;1.60;;;1.00;;
37299;SDS011;23184;51.902;12.836;2022-09-20T14:45:01;1.50;;;0.85;;
37299;SDS011;23184;51.902;12.836;2022-09-20T14:47:34;1.05;;;0.60;;
37299;SDS011;23184;51.902;12.836;2022-09-20T14:50:02;1.90;;;0.90;;
37299;SDS011;23184;51.902;12.836;2022-09-20T14:52:45;1.17;;;0.80;;
37299;SDS011;23184;51.902;12.836;2022-09-20T14:57:40;1.17;;;0.82;;
37299;SDS011;23184;51.902;12.836;2022-09-20T15:00:15;0.52;;;0.47;;
37299;SDS011;23184;51.902;12.836;2022-09-20T15:02:43;0.32;;;0.30;;
37299;SDS011;23184;51.902;12.836;2022-09-20T15:05:20;0.65;;;0.30;;
37299;SDS011;23184;51.902;12.836;2022-09-20T15:07:53;0.32;;;0.30;;
37299;SDS011;23184;51.902;12.836;2022-09-20T15:10:20;1.35;;;0.50;;
37299;SDS011;23184;51.902;12.836;2022-09-20T15:12:46;0.47;;;0.20;;
37299;SDS011;23184;51.902;12.836;2022-09-20T15:15:12;0.73;;;0.30;;
37299;SDS011;23184;51.902;12.836;2022-09-20T15:17:42;0.20;;;0.20;;
37299;SDS011;23184;51.902;12.836;2022-09-20T15:20:13;0.93;;;0.40;;
37299;SDS011;23184;51.902;12.836;2022-09-20T15:22:41;0.47;;;0.22;;
37299;SDS011;23184;51.902;12.836;2022-09-20T15:25:10;0.60;;;0.10;;
37299;SDS011;23184;51.902;12.836;2022-09-20T15:27:37;1.52;;;0.35;;
37299;SDS011;23184;51.902;12.836;2022-09-20T15:30:03;2.05;;;0.22;;
37299;SDS011;23184;51.902;12.836;2022-09-20T15:32:29;2.58;;;0.20;;
37299;SDS011;23184;51.902;12.836;2022-09-20T15:34:55;6.07;;;0.40;;
37299;SDS011;23184;51.902;12.836;2022-09-20T15:37:21;0.35;;;0.30;;
37299;SDS011;23184;51.902;12.836;2022-09-20T15:39:46;0.38;;;0.20;;
37299;SDS011;23184;51.902;12.836;2022-09-20T15:42:12;0.10;;;0.10;;
37299;SDS011;23184;51.902;12.836;2022-09-20T15:44:37;0.15;;;0.15;;
37299;SDS011;23184;51.902;12.836;2022-09-20T15:47:03;0.60;;;0.30;;
37299;SDS011;23184;51.902;12.836;2022-09-20T15:49:29;1.25;;;0.30;;
37299;SDS011;23184;51.902;12.836;2022-09-20T15:51:55;0.40;;;0.30;;
37299;SDS011;23184;51.902;12.836;2022-09-20T15:54:21;1.50;;;0.20;;
37299;SDS011;23184;51.902;12.836;2022-09-20T15:56:46;1.70;;;0.20;;
37299;SDS011;23184;51.902;12.836;2022-09-20T15:59:12;1.77;;;0.32;;
37299;SDS011;23184;51.902;12.836;2022-09-20T16:01:40;0.73;;;0.20;;
37299;SDS011;23184;51.902;12.836;2022-09-20T16:04:09;0.95;;;0.70;;
37299;SDS011;23184;51.902;12.836;2022-09-20T16:06:35;0.25;;;0.10;;
37299;SDS011;23184;51.902;12.836;2022-09-20T16:09:02;2.22;;;0.30;;
37299;SDS011;23184;51.902;12.836;2022-09-20T16:11:28;0.63;;;0.30;;
37299;SDS011;23184;51.902;12.836;2022-09-20T16:13:54;1.45;;;0.40;;
37299;SDS011;23184;51.902;12.836;2022-09-20T16:16:24;3.40;;;0.28;;
37299;SDS011;23184;51.902;12.836;2022-09-20T16:18:51;0.82;;;0.20;;
37299;SDS011;23184;51.902;12.836;2022-09-20T16:21:36;0.20;;;0.20;;
37299;SDS011;23184;51.902;12.836;2022-09-20T16:24:03;2.88;;;0.47;;
37299;SDS011;23184;51.902;12.836;2022-09-20T16:26:30;0.55;;;0.38;;
37299;SDS011;23184;51.902;12.836;2022-09-20T16:28:58;0.20;;;0.20;;
37299;SDS011;23184;51.902;12.836;2022-09-20T16:34:10;2.47;;;0.30;;
37299;SDS011;23184;51.902;12.836;2022-09-20T16:36:37;0.37;;;0.30;;
37299;SDS011;23184;51.902;12.836;2022-09-20T16:39:07;0.70;;;0.47;;
37299;SDS011;23184;51.902;12.836;2022-09-20T16:41:40;0.95;;;0.63;;
37299;SDS011;23184;51.902;12.836;2022-09-20T16:44:06;3.13;;;0.50;;
37299;SDS011;23184;51.902;12.836;2022-09-20T16:46:32;0.40;;;0.32;;
37299;SDS011;23184;51.902;12.836;2022-09-20T16:49:01;0.70;;;0.28;;
37299;SDS011;23184;51.902;12.836;2022-09-20T16:51:29;1.27;;;0.40;;
37299;SDS011;23184;51.902;12.836;2022-09-20T16:53:56;2.38;;;0.73;;
37299;SDS011;23184;51.902;12.836;2022-09-20T16:56:23;0.25;;;0.20;;
37299;SDS011;23184;51.902;12.836;2022-09-20T16:58:50;0.52;;;0.40;;
37299;SDS011;23184;51.902;12.836;2022-09-20T17:01:17;0.93;;;0.40;;
37299;SDS011;23184;51.902;12.836;2022-09-20T17:03:43;0.93;;;0.30;;
37299;SDS011;23184;51.902;12.836;2022-09-20T17:06:09;0.68;;;0.50;;
37299;SDS011;23184;51.902;12.836;2022-09-20T17:08:36;0.85;;;0.30;;
37299;SDS011;23184;51.902;12.836;2022-09-20T17:13:32;0.88;;;0.40;;
37299;SDS011;23184;51.902;12.836;2022-09-20T17:16:03;1.08;;;0.60;;
37299;SDS011;23184;51.902;12.836;2022-09-20T17:18:30;2.85;;;0.82;;
37299;SDS011;23184;51.902;12.836;2022-09-20T17:21:01;0.68;;;0.40;;
37299;SDS011;23184;51.902;12.836;2022-09-20T17:23:31;0.70;;;0.70;;
37299;SDS011;23184;51.902;12.836;2022-09-20T17:26:10;3.13;;;0.47;;
37299;SDS011;23184;51.902;12.836;2022-09-20T17:28:39;0.93;;;0.30;;
37299;SDS011;23184;51.902;12.836;2022-09-20T17:31:13;0.40;;;0.22;;
37299;SDS011;23184;51.902;12.836;2022-09-20T17:33:40;0.70;;;0.60;;
37299;SDS011;23184;51.902;12.836;2022-09-20T17:36:07;0.73;;;0.45;;
37299;SDS011;23184;51.902;12.836;2022-09-20T17:38:35;0.73;;;0.70;;
37299;SDS011;23184;51.902;12.836;2022-09-20T17:41:04;0.60;;;0.30;;
37299;SDS011;23184;51.902;12.836;2022-09-20T17:43:35;1.23;;;0.68;;
37299;SDS011;23184;51.902;12.836;2022-09-20T17:46:05;3.03;;;1.60;;
37299;SDS011;23184;51.902;12.836;2022-09-20T17:48:38;1.10;;;0.95;;
37299;SDS011;23184;51.902;12.836;2022-09-20T17:51:04;1.65;;;1.30;;
37299;SDS011;23184;51.902;12.836;2022-09-20T17:53:31;0.60;;;0.40;;
37299;SDS011;23184;51.902;12.836;2022-09-20T17:55:58;0.70;;;0.52;;
37299;SDS011;23184;51.902;12.836;2022-09-20T17:58:25;0.80;;;0.45;;
37299;SDS011;23184;51.902;12.836;2022-09-20T18:00:51;1.65;;;0.63;;
37299;SDS011;23184;51.902;12.836;2022-09-20T18:03:20;1.45;;;0.30;;
37299;SDS011;23184;51.902;12.836;2022-09-20T18:05:47;48.40;;;20.52;;
37299;SDS011;23184;51.902;12.836;2022-09-20T18:08:14;5.93;;;2.25;;
37299;SDS011;23184;51.902;12.836;2022-09-20T18:10:40;1.20;;;0.70;;
37299;SDS011;23184;51.902;12.836;2022-09-20T18:13:06;3.58;;;1.10;;
37299;SDS011;23184;51.902;12.836;2022-09-20T18:15:32;3.58;;;1.30;;
37299;SDS011;23184;51.902;12.836;2022-09-20T18:17:58;2.25;;;1.08;;
37299;SDS011;23184;51.902;12.836;2022-09-20T18:20:23;1.25;;;1.00;;
37299;SDS011;23184;51.902;12.836;2022-09-20T18:22:49;3.05;;;1.02;;
37299;SDS011;23184;51.902;12.836;2022-09-20T18:25:14;1.48;;;0.90;;
37299;SDS011;23184;51.902;12.836;2022-09-20T18:27:40;2.17;;;1.10;;
37299;SDS011;23184;51.902;12.836;2022-09-20T18:30:06;3.85;;;1.10;;
37299;SDS011;23184;51.902;12.836;2022-09-20T18:32:32;2.67;;;1.98;;
37299;SDS011;23184;51.902;12.836;2022-09-20T18:34:57;3.75;;;1.77;;
37299;SDS011;23184;51.902;12.836;2022-09-20T18:37:23;3.10;;;1.40;;
37299;SDS011;23184;51.902;12.836;2022-09-20T18:39:48;1.48;;;0.75;;
37299;SDS011;23184;51.902;12.836;2022-09-20T18:42:14;1.52;;;0.90;;
37299;SDS011;23184;51.902;12.836;2022-09-20T18:44:40;1.98;;;0.90;;
37299;SDS011;23184;51.902;12.836;2022-09-20T18:47:07;1.42;;;0.70;;
37299;SDS011;23184;51.902;12.836;2022-09-20T18:49:33;2.75;;;0.45;;
37299;SDS011;23184;51.902;12.836;2022-09-20T18:51:59;1.98;;;0.47;;
37299;SDS011;23184;51.902;12.836;2022-09-20T18:54:25;1.50;;;0.60;;
37299;SDS011;23184;51.902;12.836;2022-09-20T18:56:54;1.90;;;0.93;;
37299;SDS011;23184;51.902;12.836;2022-09-20T19:01:48;0.68;;;0.47;;
37299;SDS011;23184;51.902;12.836;2022-09-20T19:07:28;1.35;;;1.10;;
37299;SDS011;23184;51.902;12.836;2022-09-20T19:10:00;8.18;;;3.72;;
37299;SDS011;23184;51.902;12.836;2022-09-20T19:15:10;8.25;;;4.32;;
37299;SDS011;23184;51.902;12.836;2022-09-20T19:26:21;43.55;;;18.35;;
37299;SDS011;23184;51.902;12.836;2022-09-20T19:28:49;28.98;;;12.10;;
37299;SDS011;23184;51.902;12.836;2022-09-20T19:31:20;22.13;;;9.40;;
37299;SDS011;23184;51.902;12.836;2022-09-20T19:33:49;30.85;;;12.00;;
37299;SDS011;23184;51.902;12.836;2022-09-20T19:36:18;26.05;;;9.93;;
37299;SDS011;23184;51.902;12.836;2022-09-20T19:44:47;6.75;;;2.97;;
37299;SDS011;23184;51.902;12.836;2022-09-20T19:52:38;20.73;;;8.15;;
37299;SDS011;23184;51.902;12.836;2022-09-20T19:55:04;18.52;;;8.23;;
37299;SDS011;23184;51.902;12.836;2022-09-20T19:57:38;18.83;;;7.72;;